createdAt,value
2023-06-17T00:00:57.493Z,13.51
2023-06-17T00:01:59.130Z,13.47
2023-06-17T00:03:00.854Z,13.46
2023-06-17T00:04:04.013Z,13.49
2023-06-17T00:05:06.616Z,13.51
2023-06-17T00:06:08.334Z,13.77
2023-06-17T00:07:09.986Z,13.99
2023-06-17T00:08:11.625Z,14.11
2023-06-17T00:09:14.622Z,14.18
2023-06-17T00:10:16.363Z,14.24
2023-06-17T00:11:18.000Z,14.19
2023-06-17T00:12:19.646Z,14.31
2023-06-17T00:13:22.236Z,14.32
2023-06-17T00:14:24.672Z,14.50
2023-06-17T00:15:26.282Z,14.65
2023-06-17T00:16:28.062Z,14.53
2023-06-17T00:17:33.522Z,14.77
2023-06-17T00:18:35.249Z,14.78
2023-06-17T00:19:38.590Z,14.86
2023-06-17T00:20:40.271Z,14.74
2023-06-17T00:21:42.299Z,14.70
2023-06-17T00:22:48.057Z,14.63
2023-06-17T00:23:49.766Z,14.47
2023-06-17T00:24:51.501Z,14.43
2023-06-17T00:25:53.346Z,14.36
2023-06-17T00:26:54.997Z,14.37
2023-06-17T00:27:56.601Z,14.52
2023-06-17T00:28:58.271Z,14.56
2023-06-17T00:30:01.189Z,14.51
2023-06-17T00:31:04.144Z,14.46
2023-06-17T00:32:06.209Z,14.46
2023-06-17T00:33:08.501Z,14.46
2023-06-17T00:34:10.151Z,14.49
2023-06-17T00:35:11.909Z,14.37
2023-06-17T00:36:13.788Z,14.44
2023-06-17T00:37:15.393Z,14.58
2023-06-17T00:38:17.077Z,14.46
2023-06-17T00:39:18.821Z,14.44
2023-06-17T00:40:20.875Z,14.42
2023-06-17T00:41:22.764Z,14.46
2023-06-17T00:42:24.487Z,14.30
2023-06-17T00:43:26.159Z,14.26
2023-06-17T00:44:27.958Z,14.24
2023-06-17T00:45:29.589Z,14.39
2023-06-17T00:46:38.798Z,14.31
2023-06-17T00:47:40.765Z,14.53
2023-06-17T00:48:42.430Z,14.37
2023-06-17T00:49:45.716Z,14.15
2023-06-17T00:50:48.351Z,14.05
2023-06-17T00:52:04.657Z,14.06
2023-06-17T00:53:12.245Z,14.32
2023-06-17T00:54:14.210Z,14.45
2023-06-17T00:55:16.029Z,14.48
2023-06-17T00:56:18.553Z,14.43
2023-06-17T00:57:20.225Z,14.57
2023-06-17T00:58:22.138Z,14.37
2023-06-17T00:59:23.998Z,14.37
2023-06-17T01:00:25.725Z,14.12
2023-06-17T01:01:27.606Z,14.25
2023-06-17T01:02:29.225Z,14.36
2023-06-17T01:03:31.078Z,14.34
2023-06-17T01:04:34.175Z,14.31
2023-06-17T01:05:39.554Z,14.08
2023-06-17T01:07:00.797Z,14.04
2023-06-17T01:08:15.336Z,14.27
2023-06-17T01:09:17.258Z,14.27
2023-06-17T01:10:50.428Z,14.15
2023-06-17T01:11:55.214Z,14.30
2023-06-17T01:12:58.735Z,13.92
2023-06-17T01:14:01.046Z,13.83
2023-06-17T01:15:04.068Z,13.65
2023-06-17T01:16:06.051Z,13.87
2023-06-17T01:17:11.256Z,13.85
2023-06-17T01:18:13.200Z,13.65
2023-06-17T01:19:19.704Z,13.72
2023-06-17T01:20:24.177Z,13.99
2023-06-17T01:21:29.765Z,14.02
2023-06-17T01:22:31.783Z,13.94
2023-06-17T01:23:38.942Z,13.78
2023-06-17T01:24:41.578Z,13.58
2023-06-17T01:25:43.483Z,13.67
2023-06-17T01:26:45.184Z,13.53
2023-06-17T01:27:50.278Z,13.55
2023-06-17T01:28:54.292Z,13.49
2023-06-17T01:29:55.997Z,13.74
2023-06-17T01:30:58.394Z,13.99
2023-06-17T01:32:00.920Z,13.80
2023-06-17T01:33:04.467Z,13.63
2023-06-17T01:34:06.306Z,13.54
2023-06-17T01:35:14.773Z,13.48
2023-06-17T01:36:19.710Z,13.71
2023-06-17T01:37:48.438Z,13.52
2023-06-17T01:38:57.976Z,13.47
2023-06-17T01:40:01.382Z,13.45
2023-06-17T01:41:04.575Z,13.38
2023-06-17T01:42:08.639Z,13.27
2023-06-17T01:43:12.816Z,13.23
2023-06-17T01:44:16.261Z,13.10
2023-06-17T01:45:19.233Z,13.21
2023-06-17T01:46:21.125Z,13.37
2023-06-17T01:47:22.984Z,13.46
2023-06-17T01:48:24.716Z,13.35
2023-06-17T01:49:26.393Z,13.28
2023-06-17T01:50:28.037Z,13.43
2023-06-17T01:51:29.654Z,13.45
2023-06-17T01:52:31.280Z,13.22
2023-06-17T01:53:32.953Z,13.32
2023-06-17T01:54:35.173Z,13.26
2023-06-17T01:55:37.215Z,13.77
2023-06-17T01:56:38.864Z,13.46
2023-06-17T01:57:41.327Z,13.16
2023-06-17T01:58:43.028Z,13.33
2023-06-17T01:59:46.532Z,13.12
2023-06-17T02:00:49.020Z,13.06
2023-06-17T02:01:51.064Z,13.04
2023-06-17T02:02:52.795Z,13.31
2023-06-17T02:03:55.409Z,13.25
2023-06-17T02:04:57.151Z,13.10
2023-06-17T02:05:59.096Z,13.09
2023-06-17T02:07:00.683Z,13.10
2023-06-17T02:08:05.724Z,13.44
2023-06-17T02:09:08.259Z,13.34
2023-06-17T02:10:10.401Z,13.23
2023-06-17T02:11:12.564Z,13.44
2023-06-17T02:12:14.281Z,13.54
2023-06-17T02:13:16.085Z,13.51
2023-06-17T02:14:17.701Z,13.16
2023-06-17T02:15:19.300Z,13.11
2023-06-17T02:16:20.893Z,13.31
2023-06-17T02:17:24.482Z,13.13
2023-06-17T02:18:26.451Z,13.40
2023-06-17T02:19:29.950Z,13.24
2023-06-17T02:20:31.885Z,13.23
2023-06-17T02:21:33.731Z,13.23
2023-06-17T02:22:35.360Z,13.09
2023-06-17T02:23:37.088Z,13.13
2023-06-17T02:24:38.727Z,13.31
2023-06-17T02:25:41.106Z,13.24
2023-06-17T02:26:42.784Z,13.20
2023-06-17T02:27:44.380Z,13.23
2023-06-17T02:28:45.937Z,12.97
2023-06-17T02:29:47.557Z,13.11
2023-06-17T02:30:49.276Z,13.16
2023-06-17T02:31:50.933Z,13.11
2023-06-17T02:32:52.666Z,13.02
2023-06-17T02:33:56.641Z,12.99
2023-06-17T02:34:58.857Z,13.16
2023-06-17T02:36:01.747Z,13.15
2023-06-17T02:37:03.826Z,13.06
2023-06-17T02:38:05.559Z,13.30
2023-06-17T02:39:07.575Z,13.45
2023-06-17T02:40:10.364Z,13.49
2023-06-17T02:41:12.426Z,13.56
2023-06-17T02:42:14.141Z,13.38
2023-06-17T02:43:15.713Z,13.35
2023-06-17T02:44:17.325Z,13.17
2023-06-17T02:45:19.060Z,13.41
2023-06-17T02:46:21.986Z,13.20
2023-06-17T02:47:23.719Z,13.23
2023-06-17T02:48:25.361Z,13.24
2023-06-17T02:49:26.960Z,13.16
2023-06-17T02:50:28.795Z,13.23
2023-06-17T02:51:30.815Z,13.26
2023-06-17T02:52:32.642Z,13.38
2023-06-17T02:53:34.425Z,13.29
2023-06-17T02:54:36.995Z,13.06
2023-06-17T02:55:46.424Z,13.32
2023-06-17T02:56:52.560Z,13.31
2023-06-17T02:57:54.609Z,13.43
2023-06-17T02:58:56.579Z,13.63
2023-06-17T02:59:59.018Z,13.46
2023-06-17T03:01:01.143Z,13.49
2023-06-17T03:02:06.149Z,13.52
2023-06-17T03:03:07.955Z,13.10
2023-06-17T03:04:13.213Z,12.88
2023-06-17T03:05:17.844Z,13.01
2023-06-17T03:06:20.117Z,13.10
2023-06-17T03:07:25.719Z,12.88
2023-06-17T03:08:36.891Z,13.03
2023-06-17T03:09:38.536Z,13.09
2023-06-17T03:10:40.308Z,13.09
2023-06-17T03:11:47.165Z,13.08
2023-06-17T03:12:48.897Z,13.10
2023-06-17T03:13:50.506Z,13.25
2023-06-17T03:15:01.818Z,13.37
2023-06-17T03:16:03.880Z,13.27
2023-06-17T03:17:09.052Z,13.28
2023-06-17T03:18:11.139Z,13.09
2023-06-17T03:19:12.871Z,13.05
2023-06-17T03:20:15.186Z,13.01
2023-06-17T03:21:17.099Z,13.13
2023-06-17T03:22:19.002Z,13.21
2023-06-17T03:23:24.127Z,13.09
2023-06-17T03:24:26.285Z,13.21
2023-06-17T03:25:29.191Z,13.08
2023-06-17T03:26:31.001Z,13.21
2023-06-17T03:27:32.806Z,13.07
2023-06-17T03:28:34.881Z,13.31
2023-06-17T03:29:36.615Z,13.00
2023-06-17T03:30:41.458Z,12.90
2023-06-17T03:31:43.163Z,12.84
2023-06-17T03:32:45.895Z,12.94
2023-06-17T03:33:54.275Z,12.95
2023-06-17T03:34:55.955Z,13.21
2023-06-17T03:35:58.168Z,13.03
2023-06-17T03:36:59.789Z,12.94
2023-06-17T03:38:02.207Z,13.02
2023-06-17T03:39:04.640Z,13.13
2023-06-17T03:40:10.187Z,12.93
2023-06-17T03:41:13.337Z,12.77
2023-06-17T03:42:18.386Z,12.53
2023-06-17T03:43:20.192Z,12.63
2023-06-17T03:44:22.111Z,12.69
2023-06-17T03:45:23.785Z,12.63
2023-06-17T03:46:27.740Z,12.70
2023-06-17T03:47:29.598Z,12.58
2023-06-17T03:48:31.491Z,12.54
2023-06-17T03:49:33.111Z,12.71
2023-06-17T03:50:35.971Z,12.65
2023-06-17T03:51:38.278Z,12.85
2023-06-17T03:52:40.430Z,12.99
2023-06-17T03:53:42.323Z,13.05
2023-06-17T03:54:43.980Z,13.04
2023-06-17T03:55:45.738Z,13.15
2023-06-17T03:56:47.404Z,13.14
2023-06-17T03:57:49.250Z,13.01
2023-06-17T03:58:51.249Z,13.12
2023-06-17T03:59:53.620Z,12.91
2023-06-17T04:00:55.265Z,12.93
2023-06-17T04:01:56.857Z,12.70
2023-06-17T04:02:58.812Z,13.07
2023-06-17T04:04:04.913Z,13.10
2023-06-17T04:05:07.268Z,13.28
2023-06-17T04:06:09.333Z,13.39
2023-06-17T04:07:12.009Z,13.32
2023-06-17T04:08:13.819Z,13.55
2023-06-17T04:09:16.043Z,13.33
2023-06-17T04:10:17.687Z,13.19
2023-06-17T04:11:19.273Z,13.52
2023-06-17T04:12:20.980Z,13.52
2023-06-17T04:13:22.592Z,13.55
2023-06-17T04:14:27.787Z,13.59
2023-06-17T04:15:29.448Z,13.72
2023-06-17T04:16:36.568Z,13.58
2023-06-17T04:17:38.357Z,13.54
2023-06-17T04:18:40.943Z,13.01
2023-06-17T04:19:42.573Z,12.95
2023-06-17T04:20:45.388Z,13.41
2023-06-17T04:21:47.068Z,13.10
2023-06-17T04:22:48.678Z,13.03
2023-06-17T04:23:51.234Z,13.02
2023-06-17T04:24:57.042Z,13.09
2023-06-17T04:25:58.922Z,13.22
2023-06-17T04:27:00.606Z,13.29
2023-06-17T04:28:03.034Z,13.42
2023-06-17T04:29:09.623Z,13.85
2023-06-17T04:30:11.845Z,13.88
2023-06-17T04:31:16.453Z,14.10
2023-06-17T04:32:18.476Z,14.45
2023-06-17T04:33:20.252Z,14.56
2023-06-17T04:34:24.416Z,14.69
2023-06-17T04:35:29.506Z,14.64
2023-06-17T04:36:32.226Z,14.81
2023-06-17T04:37:33.993Z,14.78
2023-06-17T04:38:42.996Z,14.52
2023-06-17T04:39:45.595Z,14.50
2023-06-17T04:40:47.685Z,14.61
2023-06-17T04:41:50.094Z,14.59
2023-06-17T04:42:52.020Z,14.90
2023-06-17T04:43:54.613Z,15.18
2023-06-17T04:44:57.427Z,15.60
2023-06-17T04:45:59.082Z,16.20
2023-06-17T04:47:01.366Z,16.72
2023-06-17T04:48:07.680Z,16.95
2023-06-17T04:49:09.943Z,16.90
2023-06-17T04:50:13.695Z,17.38
2023-06-17T04:51:18.851Z,18.02
2023-06-17T04:52:21.556Z,18.38
2023-06-17T04:53:23.385Z,18.24
2023-06-17T04:54:25.700Z,17.80
2023-06-17T04:55:27.630Z,18.35
2023-06-17T04:56:29.602Z,18.59
2023-06-17T04:57:31.361Z,18.75
2023-06-17T04:58:34.426Z,18.76
2023-06-17T04:59:44.022Z,18.64
2023-06-17T05:00:46.345Z,18.66
2023-06-17T05:01:51.962Z,19.37
2023-06-17T05:02:53.646Z,19.27
2023-06-17T05:03:55.709Z,19.23
2023-06-17T05:04:57.423Z,19.33
2023-06-17T05:05:59.718Z,19.96
2023-06-17T05:07:05.036Z,20.02
2023-06-17T05:08:08.357Z,19.97
2023-06-17T05:09:10.339Z,19.55
2023-06-17T05:10:14.072Z,19.40
2023-06-17T05:11:16.760Z,19.99
2023-06-17T05:12:19.934Z,20.00
2023-06-17T05:13:21.964Z,20.33
2023-06-17T05:14:26.615Z,20.46
2023-06-17T05:15:28.283Z,20.59
2023-06-17T05:16:29.969Z,20.36
2023-06-17T05:17:31.973Z,20.92
2023-06-17T05:18:33.648Z,21.07
2023-06-17T05:19:35.302Z,20.95
2023-06-17T05:20:37.334Z,21.55
2023-06-17T05:21:39.020Z,21.76
2023-06-17T05:22:40.728Z,22.17
2023-06-17T05:23:42.809Z,22.36
2023-06-17T05:24:44.505Z,21.95
2023-06-17T05:25:46.214Z,22.20
2023-06-17T05:26:48.255Z,22.16
2023-06-17T05:27:52.323Z,22.15
2023-06-17T05:28:55.841Z,22.32
2023-06-17T05:29:57.589Z,22.60
2023-06-17T05:30:59.204Z,22.19
2023-06-17T05:32:01.719Z,21.99
2023-06-17T05:33:03.996Z,21.74
2023-06-17T05:34:05.921Z,21.93
2023-06-17T05:35:08.411Z,22.68
2023-06-17T05:36:10.204Z,22.27
2023-06-17T05:37:12.371Z,22.37
2023-06-17T05:38:13.996Z,22.59
2023-06-17T05:39:16.483Z,22.71
2023-06-17T05:40:18.312Z,22.67
2023-06-17T05:41:20.073Z,22.84
2023-06-17T05:42:22.271Z,23.14
2023-06-17T05:43:27.578Z,23.33
2023-06-17T05:44:29.265Z,24.01
2023-06-17T05:45:31.663Z,23.78
2023-06-17T05:46:33.533Z,23.84
2023-06-17T05:47:35.852Z,24.63
2023-06-17T05:48:37.534Z,24.55
2023-06-17T05:49:40.596Z,24.16
2023-06-17T05:50:42.248Z,23.85
2023-06-17T05:51:44.143Z,24.44
2023-06-17T05:52:46.781Z,24.85
2023-06-17T05:53:48.467Z,25.06
2023-06-17T05:54:50.089Z,25.27
2023-06-17T05:55:51.681Z,25.43
2023-06-17T05:56:53.650Z,25.25
2023-06-17T05:57:55.510Z,25.15
2023-06-17T05:58:57.321Z,25.02
2023-06-17T06:00:05.155Z,25.19
2023-06-17T06:01:15.264Z,24.86
2023-06-17T06:02:17.149Z,24.70
2023-06-17T06:03:19.196Z,25.58
2023-06-17T06:04:20.941Z,25.96
2023-06-17T06:05:22.648Z,25.91
2023-06-17T06:06:24.291Z,26.45
2023-06-17T06:07:26.032Z,25.87
2023-06-17T06:08:27.872Z,25.77
2023-06-17T06:09:29.553Z,26.04
2023-06-17T06:10:31.184Z,25.86
2023-06-17T06:11:35.617Z,25.78
2023-06-17T06:12:37.650Z,26.14
2023-06-17T06:13:40.024Z,26.58
2023-06-17T06:14:41.655Z,26.55
2023-06-17T06:15:43.345Z,26.98
2023-06-17T06:16:46.148Z,27.11
2023-06-17T06:17:47.993Z,27.04
2023-06-17T06:18:49.701Z,26.59
2023-06-17T06:19:51.939Z,26.50
2023-06-17T06:20:53.709Z,26.54
2023-06-17T06:21:55.309Z,26.19
2023-06-17T06:22:59.246Z,26.65
2023-06-17T06:24:02.202Z,26.25
2023-06-17T06:25:09.649Z,26.66
2023-06-17T06:26:11.465Z,26.34
2023-06-17T06:27:13.113Z,27.15
2023-06-17T06:28:15.100Z,27.89
2023-06-17T06:29:17.254Z,28.69
2023-06-17T06:30:19.802Z,29.20
2023-06-17T06:31:26.621Z,28.42
2023-06-17T06:32:28.446Z,28.32
2023-06-17T06:33:32.390Z,28.83
2023-06-17T06:34:34.086Z,28.96
2023-06-17T06:35:35.986Z,29.08
2023-06-17T06:36:38.085Z,29.34
2023-06-17T06:37:39.817Z,28.38
2023-06-17T06:38:41.457Z,28.40
2023-06-17T06:39:44.112Z,28.73
2023-06-17T06:40:46.353Z,29.21
2023-06-17T06:41:48.212Z,29.70
2023-06-17T06:43:24.329Z,29.70
2023-06-17T06:44:30.001Z,29.67
2023-06-17T06:45:31.811Z,29.96
2023-06-17T06:46:35.084Z,30.54
2023-06-17T06:47:36.841Z,30.35
2023-06-17T06:48:38.502Z,30.97
2023-06-17T06:49:40.452Z,30.83
2023-06-17T06:50:42.180Z,30.54
2023-06-17T06:51:44.540Z,30.45
2023-06-17T06:52:46.320Z,31.15
2023-06-17T06:53:49.909Z,31.87
2023-06-17T06:54:52.022Z,30.43
2023-06-17T06:55:53.705Z,30.42
2023-06-17T06:56:56.834Z,29.42
2023-06-17T06:57:58.496Z,29.46
2023-06-17T06:59:01.108Z,30.06
2023-06-17T07:00:09.101Z,29.45
2023-06-17T07:01:11.631Z,28.31
2023-06-17T07:02:13.253Z,29.20
2023-06-17T07:03:15.011Z,30.74
2023-06-17T07:04:16.706Z,30.81
2023-06-17T07:05:18.865Z,29.81
2023-06-17T07:06:26.350Z,31.07
2023-06-17T07:07:28.261Z,31.10
2023-06-17T07:08:31.136Z,31.56
2023-06-17T07:09:32.775Z,32.20
2023-06-17T07:10:34.752Z,32.73
2023-06-17T07:11:36.454Z,32.22
2023-06-17T07:12:38.312Z,32.87
2023-06-17T07:13:40.473Z,32.39
2023-06-17T07:14:42.295Z,31.84
2023-06-17T07:15:45.203Z,31.53
2023-06-17T07:16:47.054Z,30.37
2023-06-17T07:17:48.886Z,30.96
2023-06-17T07:18:50.818Z,31.38
2023-06-17T07:19:52.523Z,31.27
2023-06-17T07:20:54.295Z,31.10
2023-06-17T07:21:56.036Z,31.66
2023-06-17T07:22:58.658Z,31.14
2023-06-17T07:24:01.262Z,31.41
2023-06-17T07:25:03.751Z,30.25
2023-06-17T07:26:07.503Z,28.79
2023-06-17T07:27:09.199Z,28.73
2023-06-17T07:28:10.835Z,28.82
2023-06-17T07:29:12.691Z,30.88
2023-06-17T07:30:14.415Z,31.38
2023-06-17T07:31:16.243Z,31.41
2023-06-17T07:32:17.995Z,31.80
2023-06-17T07:33:19.656Z,31.95
2023-06-17T07:34:21.383Z,32.51
2023-06-17T07:35:23.868Z,33.64
2023-06-17T07:36:26.333Z,33.37
2023-06-17T07:37:27.974Z,33.79
2023-06-17T07:38:34.007Z,33.74
2023-06-17T07:39:36.507Z,34.07
2023-06-17T07:40:38.277Z,33.24
2023-06-17T07:41:40.033Z,34.01
2023-06-17T07:42:43.844Z,33.63
2023-06-17T07:43:45.525Z,32.91
2023-06-17T07:44:47.090Z,33.57
2023-06-17T07:45:49.399Z,33.69
2023-06-17T07:46:51.227Z,33.97
2023-06-17T07:47:52.993Z,33.50
2023-06-17T07:48:54.594Z,33.65
2023-06-17T07:49:56.175Z,34.37
2023-06-17T07:50:57.803Z,34.47
2023-06-17T07:51:59.433Z,34.44
2023-06-17T07:53:01.127Z,34.99
2023-06-17T07:54:02.737Z,35.10
2023-06-17T07:55:07.966Z,35.10
2023-06-17T07:56:10.069Z,35.11
2023-06-17T07:57:11.686Z,34.60
2023-06-17T07:58:13.252Z,33.92
2023-06-17T07:59:14.854Z,33.78
2023-06-17T08:00:18.171Z,33.86
2023-06-17T08:01:19.908Z,33.73
2023-06-17T08:02:22.337Z,33.00
2023-06-17T08:03:24.112Z,33.28
2023-06-17T08:04:26.307Z,33.56
2023-06-17T08:05:27.934Z,33.69
2023-06-17T08:06:30.339Z,33.35
2023-06-17T08:07:31.965Z,33.92
2023-06-17T08:08:33.554Z,34.09
2023-06-17T08:09:35.178Z,34.25
2023-06-17T08:10:36.866Z,34.22
2023-06-17T08:11:38.492Z,34.68
2023-06-17T08:12:40.138Z,35.47
2023-06-17T08:13:41.779Z,35.18
2023-06-17T08:14:43.401Z,35.71
2023-06-17T08:15:45.053Z,35.16
2023-06-17T08:16:47.093Z,35.04
2023-06-17T08:17:49.628Z,34.56
2023-06-17T08:18:51.277Z,34.32
2023-06-17T08:19:52.908Z,33.72
2023-06-17T08:20:54.522Z,33.26
2023-06-17T08:21:56.137Z,33.28
2023-06-17T08:22:57.831Z,33.37
2023-06-17T08:23:59.500Z,33.55
2023-06-17T08:25:01.178Z,34.47
2023-06-17T08:26:02.869Z,34.54
2023-06-17T08:27:07.079Z,34.05
2023-06-17T08:28:09.002Z,33.38
2023-06-17T08:29:11.726Z,33.64
2023-06-17T08:30:13.520Z,33.86
2023-06-17T08:31:15.178Z,34.93
2023-06-17T08:32:16.953Z,34.13
2023-06-17T08:33:19.074Z,32.43
2023-06-17T08:34:22.523Z,32.57
2023-06-17T08:35:24.483Z,33.34
2023-06-17T08:36:26.332Z,32.42
2023-06-17T08:37:27.927Z,31.81
2023-06-17T08:38:29.545Z,30.73
2023-06-17T08:39:33.961Z,30.24
2023-06-17T08:40:36.773Z,29.05
2023-06-17T08:41:40.253Z,29.86
2023-06-17T08:42:42.234Z,31.86
2023-06-17T08:43:45.495Z,32.99
2023-06-17T08:44:47.761Z,32.97
2023-06-17T08:45:50.704Z,32.11
2023-06-17T08:46:55.626Z,32.43
2023-06-17T08:47:58.537Z,33.20
2023-06-17T08:49:00.521Z,33.23
2023-06-17T08:50:03.794Z,32.97
2023-06-17T08:51:06.067Z,33.78
2023-06-17T08:52:09.327Z,32.97
2023-06-17T08:53:12.261Z,32.32
2023-06-17T08:54:13.942Z,31.36
2023-06-17T08:55:16.834Z,30.91
2023-06-17T08:56:18.768Z,30.43
2023-06-17T08:57:20.442Z,30.09
2023-06-17T08:58:22.244Z,30.06
2023-06-17T08:59:23.955Z,30.19
2023-06-17T09:00:25.665Z,30.05
2023-06-17T09:01:28.282Z,30.05
2023-06-17T09:02:30.072Z,30.54
2023-06-17T09:03:39.058Z,30.25
2023-06-17T09:04:41.103Z,30.90
2023-06-17T09:05:42.860Z,31.61
2023-06-17T09:06:45.575Z,32.35
2023-06-17T09:07:47.294Z,33.29
2023-06-17T09:08:49.377Z,34.15
2023-06-17T09:09:54.595Z,33.64
2023-06-17T09:11:04.915Z,34.85
2023-06-17T09:12:07.744Z,35.39
2023-06-17T09:13:09.720Z,35.27
2023-06-17T09:14:11.397Z,34.82
2023-06-17T09:15:17.443Z,34.86
2023-06-17T09:16:39.881Z,33.63
2023-06-17T09:17:43.861Z,34.17
2023-06-17T09:18:45.627Z,34.75
2023-06-17T09:19:47.271Z,35.20
2023-06-17T09:20:58.329Z,36.04
2023-06-17T09:22:09.353Z,34.71
2023-06-17T09:23:17.160Z,34.07
2023-06-17T09:24:18.941Z,32.67
2023-06-17T09:25:21.564Z,32.21
2023-06-17T09:26:29.764Z,31.57
2023-06-17T09:27:31.300Z,31.88
2023-06-17T09:28:32.929Z,33.26
2023-06-17T09:29:37.752Z,33.31
2023-06-17T09:30:44.674Z,33.14
2023-06-17T09:31:53.578Z,34.21
2023-06-17T09:32:55.587Z,34.44
2023-06-17T09:33:58.028Z,34.90
2023-06-17T09:34:59.632Z,35.21
2023-06-17T09:36:02.542Z,35.17
2023-06-17T09:37:04.959Z,35.66
2023-06-17T09:38:06.562Z,36.07
2023-06-17T09:39:10.026Z,36.50
2023-06-17T09:40:12.579Z,34.73
2023-06-17T09:41:15.709Z,33.83
2023-06-17T09:42:17.919Z,33.40
2023-06-17T09:44:25.288Z,31.87
2023-06-17T09:45:28.086Z,31.20
2023-06-17T09:46:30.916Z,30.46
2023-06-17T09:47:37.805Z,30.27
2023-06-17T09:48:41.438Z,29.71
2023-06-17T09:49:44.887Z,28.92
2023-06-17T09:50:48.168Z,28.47
2023-06-17T09:51:50.180Z,29.18
2023-06-17T09:52:55.409Z,27.62
2023-06-17T09:53:57.162Z,27.40
2023-06-17T09:54:59.791Z,28.82
2023-06-17T09:56:01.754Z,30.47
2023-06-17T09:57:03.701Z,31.74
2023-06-17T09:58:05.487Z,32.56
2023-06-17T09:59:08.509Z,33.55
2023-06-17T10:00:15.534Z,33.41
2023-06-17T10:01:17.249Z,32.39
2023-06-17T10:02:18.974Z,32.92
2023-06-17T10:03:21.284Z,33.61
2023-06-17T10:04:23.249Z,34.27
2023-06-17T10:05:26.216Z,33.61
2023-06-17T10:06:31.057Z,32.32
2023-06-17T10:07:32.800Z,32.08
2023-06-17T10:08:37.698Z,33.35
2023-06-17T10:09:39.944Z,33.95
2023-06-17T10:10:41.742Z,34.12
2023-06-17T10:11:46.254Z,34.33
2023-06-17T10:12:48.621Z,33.94
2023-06-17T10:14:03.591Z,34.57
2023-06-17T10:15:06.258Z,34.96
2023-06-17T10:16:10.908Z,34.93
2023-06-17T10:17:13.575Z,35.25
2023-06-17T10:18:15.907Z,34.77
2023-06-17T10:19:21.336Z,35.15
2023-06-17T10:20:24.484Z,34.67
2023-06-17T10:21:27.516Z,35.68
2023-06-17T10:22:29.195Z,35.75
2023-06-17T10:23:31.623Z,35.34
2023-06-17T10:24:33.856Z,33.95
2023-06-17T10:25:36.937Z,33.19
2023-06-17T10:26:39.476Z,32.18
2023-06-17T10:27:41.651Z,33.36
2023-06-17T10:28:44.497Z,34.13
2023-06-17T10:29:49.243Z,34.32
2023-06-17T10:30:53.097Z,34.39
2023-06-17T10:31:54.732Z,35.16
2023-06-17T10:32:58.624Z,35.56
2023-06-17T10:34:02.370Z,34.58
2023-06-17T10:35:07.229Z,35.62
2023-06-17T10:36:10.868Z,35.61
2023-06-17T10:37:13.391Z,35.66
2023-06-17T10:38:35.281Z,35.99
2023-06-17T10:39:36.881Z,35.60
2023-06-17T10:40:48.840Z,35.90
2023-06-17T10:41:52.020Z,36.54
2023-06-17T10:42:54.400Z,35.70
2023-06-17T10:43:56.295Z,36.43
2023-06-17T10:44:58.600Z,36.52
2023-06-17T10:46:01.142Z,35.17
2023-06-17T10:47:04.226Z,33.99
2023-06-17T10:48:18.832Z,33.95
2023-06-17T10:49:21.051Z,33.08
2023-06-17T10:50:23.452Z,32.98
2023-06-17T10:51:36.419Z,31.94
2023-06-17T10:52:42.826Z,33.03
2023-06-17T10:53:48.529Z,33.55
2023-06-17T10:54:56.420Z,34.12
2023-06-17T10:55:58.832Z,34.19
2023-06-17T10:57:05.788Z,35.18
2023-06-17T10:58:08.334Z,35.82
2023-06-17T10:59:09.947Z,35.95
2023-06-17T11:00:14.819Z,36.28
2023-06-17T11:01:16.496Z,35.71
2023-06-17T11:02:18.154Z,35.91
2023-06-17T11:03:20.671Z,35.92
2023-06-17T11:04:22.742Z,34.79
2023-06-17T11:05:24.581Z,33.68
2023-06-17T11:06:26.210Z,33.35
2023-06-17T11:07:28.318Z,33.27
2023-06-17T11:08:31.552Z,32.14
2023-06-17T11:09:34.885Z,32.56
2023-06-17T11:10:37.077Z,32.31
2023-06-17T11:11:38.794Z,31.78
2023-06-17T11:12:42.951Z,31.36
2023-06-17T11:13:48.516Z,31.10
2023-06-17T11:14:50.412Z,30.88
2023-06-17T11:15:56.151Z,30.25
2023-06-17T11:16:58.121Z,29.59
2023-06-17T11:18:03.204Z,29.99
2023-06-17T11:19:04.879Z,29.69
2023-06-17T11:20:08.091Z,29.82
2023-06-17T11:21:10.706Z,29.16
2023-06-17T11:22:12.680Z,29.23
2023-06-17T11:23:14.254Z,30.29
2023-06-17T11:24:15.894Z,30.72
2023-06-17T11:25:19.629Z,31.28
2023-06-17T11:26:25.224Z,31.68
2023-06-17T11:27:28.956Z,31.49
2023-06-17T11:28:31.718Z,31.26
2023-06-17T11:29:33.953Z,31.51
2023-06-17T11:30:35.771Z,30.96
2023-06-17T11:31:38.254Z,30.88
2023-06-17T11:32:42.584Z,30.46
2023-06-17T11:33:45.068Z,29.97
2023-06-17T11:34:46.703Z,29.05
2023-06-17T11:35:52.553Z,28.68
2023-06-17T11:36:55.078Z,28.44
2023-06-17T11:37:56.725Z,28.51
2023-06-17T11:38:59.345Z,28.75
2023-06-17T11:40:01.353Z,28.46
2023-06-17T11:41:03.074Z,28.24
2023-06-17T11:42:05.918Z,28.33
2023-06-17T11:43:07.732Z,28.43
2023-06-17T11:44:09.405Z,28.48
2023-06-17T11:45:11.305Z,28.72
2023-06-17T11:46:12.994Z,28.56
2023-06-17T11:47:15.802Z,28.60
2023-06-17T11:48:18.454Z,28.39
2023-06-17T11:49:25.994Z,29.13
2023-06-17T11:50:31.471Z,29.12
2023-06-17T11:51:33.890Z,29.28
2023-06-17T11:52:35.827Z,29.52
2023-06-17T11:53:38.601Z,29.63
2023-06-17T11:54:47.183Z,29.53
2023-06-17T11:55:48.806Z,29.19
2023-06-17T11:56:50.795Z,29.02
2023-06-17T11:57:52.589Z,28.96
2023-06-17T11:58:54.435Z,28.47
2023-06-17T12:00:01.405Z,28.42
2023-06-17T12:01:03.872Z,28.33
2023-06-17T12:02:05.825Z,28.06
2023-06-17T12:03:07.496Z,27.66
2023-06-17T12:04:09.230Z,28.10
2023-06-17T12:05:11.401Z,28.44
2023-06-17T12:06:19.487Z,28.70
2023-06-17T12:07:21.184Z,28.66
2023-06-17T12:08:23.109Z,28.86
2023-06-17T12:09:24.745Z,28.74
2023-06-17T12:10:27.538Z,28.86
2023-06-17T12:11:31.600Z,28.54
2023-06-17T12:12:36.576Z,28.23
2023-06-17T12:13:42.943Z,27.96
2023-06-17T12:14:44.539Z,27.99
2023-06-17T12:15:46.613Z,27.98
2023-06-17T12:16:48.740Z,27.85
2023-06-17T12:17:50.389Z,28.07
2023-06-17T12:18:53.036Z,28.24
2023-06-17T12:20:01.723Z,28.02
2023-06-17T12:21:10.626Z,27.86
2023-06-17T12:22:13.035Z,27.90
2023-06-17T12:23:15.600Z,27.99
2023-06-17T12:24:18.682Z,27.99
2023-06-17T12:25:20.711Z,28.06
2023-06-17T12:26:26.410Z,28.28
2023-06-17T12:27:30.190Z,28.42
2023-06-17T12:28:33.670Z,28.40
2023-06-17T12:29:35.361Z,28.45
2023-06-17T12:30:37.040Z,28.41
2023-06-17T12:31:38.690Z,28.28
2023-06-17T12:32:44.156Z,28.36
2023-06-17T12:33:49.545Z,28.43
2023-06-17T12:34:52.218Z,28.49
2023-06-17T12:35:53.816Z,28.63
2023-06-17T12:36:55.464Z,28.78
2023-06-17T12:37:57.067Z,28.78
2023-06-17T12:39:01.516Z,28.71
2023-06-17T12:40:07.739Z,28.52
2023-06-17T12:41:11.382Z,28.61
2023-06-17T12:42:13.481Z,28.65
2023-06-17T12:43:15.080Z,28.69
2023-06-17T12:44:18.855Z,28.77
2023-06-17T12:45:20.907Z,28.51
2023-06-17T12:46:22.981Z,28.74
2023-06-17T12:47:25.077Z,28.92
2023-06-17T12:48:27.857Z,28.93
2023-06-17T12:49:29.990Z,28.88
2023-06-17T12:50:31.537Z,28.44
2023-06-17T12:51:33.797Z,28.18
2023-06-17T12:52:35.494Z,27.63
2023-06-17T12:53:37.141Z,27.41
2023-06-17T12:54:38.820Z,27.35
2023-06-17T12:55:40.853Z,27.26
2023-06-17T12:56:43.465Z,27.29
2023-06-17T12:57:45.110Z,27.48
2023-06-17T12:58:46.769Z,27.65
2023-06-17T12:59:48.349Z,27.48
2023-06-17T13:00:49.970Z,27.64
2023-06-17T13:01:51.679Z,27.63
2023-06-17T13:02:53.469Z,27.41
2023-06-17T13:03:55.163Z,27.15
2023-06-17T13:04:56.786Z,27.15
2023-06-17T13:05:58.511Z,26.99
2023-06-17T13:07:00.163Z,27.22
2023-06-17T13:08:01.758Z,27.23
2023-06-17T13:09:03.680Z,27.13
2023-06-17T13:10:05.824Z,26.95
2023-06-17T13:11:07.506Z,26.90
2023-06-17T13:12:09.302Z,26.92
2023-06-17T13:13:11.126Z,27.09
2023-06-17T13:14:12.774Z,27.33
2023-06-17T13:15:14.740Z,27.57
2023-06-17T13:16:16.420Z,27.62
2023-06-17T13:17:18.106Z,27.58
2023-06-17T13:18:19.771Z,27.69
2023-06-17T13:19:21.620Z,27.34
2023-06-17T13:20:23.614Z,27.14
2023-06-17T13:21:25.720Z,27.23
2023-06-17T13:22:27.718Z,27.33
2023-06-17T13:23:29.943Z,27.19
2023-06-17T13:24:31.702Z,27.35
2023-06-17T13:25:33.445Z,27.24
2023-06-17T13:26:36.316Z,27.17
2023-06-17T13:27:37.944Z,27.19
2023-06-17T13:28:39.858Z,27.10
2023-06-17T13:29:41.888Z,27.21
2023-06-17T13:30:44.459Z,27.22
2023-06-17T13:31:46.113Z,27.23
2023-06-17T13:32:47.831Z,27.38